createdAt,value
2018-04-25T00:03:29.953Z,21.00
2018-04-25T00:08:32.017Z,21.10
2018-04-25T00:13:33.393Z,21.77
2018-04-25T00:18:34.772Z,19.80
2018-04-25T00:23:36.130Z,20.87
2018-04-25T00:28:38.193Z,21.37
2018-04-25T00:33:39.558Z,20.70
2018-04-25T00:38:40.863Z,20.70
2018-04-25T00:43:42.181Z,19.07
2018-04-25T00:48:43.534Z,17.93
2018-04-25T00:53:44.890Z,17.10
2018-04-25T00:58:46.978Z,17.37
2018-04-25T01:03:48.387Z,17.30
2018-04-25T01:08:50.483Z,16.93
2018-04-25T01:13:51.814Z,17.07
2018-04-25T01:18:53.162Z,16.37
2018-04-25T01:23:54.509Z,18.07
2018-04-25T01:28:55.934Z,17.97
2018-04-25T01:33:58.073Z,18.10
2018-04-25T01:39:15.098Z,18.23
2018-04-25T01:44:30.258Z,17.37
2018-04-25T01:49:36.547Z,18.03
2018-04-25T01:54:57.087Z,18.30
2018-04-25T02:00:17.666Z,18.93
2018-04-25T02:05:18.994Z,18.90
2018-04-25T02:10:20.294Z,19.83
2018-04-25T02:15:21.619Z,18.87
2018-04-25T02:20:22.959Z,18.10
2018-04-25T02:25:24.293Z,18.07
2018-04-25T02:30:26.105Z,17.50
2018-04-25T02:35:27.455Z,16.30
2018-04-25T02:40:28.783Z,17.10
2018-04-25T02:45:30.102Z,15.50
2018-04-25T02:50:31.466Z,14.10
2018-04-25T02:55:32.782Z,15.13
2018-04-25T03:00:34.102Z,13.63
2018-04-25T03:05:35.425Z,12.73
2018-04-25T03:10:36.731Z,13.37
2018-04-25T03:15:38.089Z,13.10
2018-04-25T03:20:40.167Z,13.33
2018-04-25T03:25:41.490Z,12.90
2018-04-25T03:30:42.824Z,11.70
2018-04-25T03:35:44.129Z,12.70
2018-04-25T03:40:46.404Z,12.40
2018-04-25T03:45:47.791Z,12.10
2018-04-25T03:50:49.104Z,12.07
2018-04-25T03:55:50.454Z,11.20
2018-04-25T04:00:51.774Z,13.00
2018-04-25T04:05:53.102Z,13.37
2018-04-25T04:10:55.404Z,11.77
2018-04-25T04:15:56.819Z,11.50
2018-04-25T04:20:58.880Z,11.50
2018-04-25T04:26:00.270Z,11.07
2018-04-25T04:31:01.675Z,12.90
2018-04-25T04:36:03.013Z,11.70
2018-04-25T04:41:04.317Z,11.50
2018-04-25T04:46:05.630Z,11.67
2018-04-25T04:51:06.973Z,11.60
2018-04-25T04:56:09.026Z,10.10
2018-04-25T05:01:10.364Z,9.80
2018-04-25T05:06:12.425Z,9.97
2018-04-25T05:11:13.795Z,9.83
2018-04-25T05:16:15.201Z,9.67
2018-04-25T05:21:16.534Z,9.40
2018-04-25T05:26:18.586Z,9.40
2018-04-25T05:31:19.908Z,8.23
2018-04-25T05:36:21.250Z,8.50
2018-04-25T05:41:22.550Z,8.17
2018-04-25T05:46:23.875Z,6.90
2018-04-25T05:51:25.321Z,6.37
2018-04-25T05:56:26.668Z,6.70
2018-04-25T06:01:28.754Z,6.63
2018-04-25T06:06:30.066Z,7.17
2018-04-25T06:11:31.428Z,7.00
2018-04-25T06:16:32.742Z,8.53
2018-04-25T06:21:40.999Z,6.33
2018-04-25T06:26:42.323Z,6.20
2018-04-25T06:31:43.662Z,4.63
2018-04-25T06:36:45.026Z,4.50
2018-04-25T06:41:46.329Z,4.97
2018-04-25T06:46:47.723Z,5.27
2018-04-25T06:51:49.057Z,4.90
2018-04-25T06:56:50.573Z,3.40
2018-04-25T07:01:51.810Z,2.83
2018-04-25T07:06:53.163Z,3.80
2018-04-25T07:11:54.479Z,3.70
2018-04-25T07:16:55.783Z,3.60
2018-04-25T07:21:57.114Z,2.27
2018-04-25T07:26:58.453Z,2.60
2018-04-25T07:31:59.798Z,2.40
2018-04-25T07:37:01.142Z,1.90
2018-04-25T07:42:02.484Z,2.17
2018-04-25T07:47:03.842Z,1.80
2018-04-25T07:52:05.208Z,1.97
2018-04-25T07:57:06.538Z,1.57
2018-04-25T08:02:07.873Z,1.87
2018-04-25T08:07:09.187Z,1.70
2018-04-25T08:12:29.773Z,1.90
2018-04-25T08:17:49.495Z,1.70
2018-04-25T08:22:51.673Z,1.80
2018-04-25T08:27:53.725Z,2.00
2018-04-25T08:32:55.045Z,1.77
2018-04-25T08:37:56.354Z,2.50
2018-04-25T08:42:58.406Z,1.90
2018-04-25T08:47:59.717Z,2.00
2018-04-25T08:53:08.070Z,2.23
2018-04-25T08:58:09.404Z,1.70
2018-04-25T09:03:10.718Z,1.90
2018-04-25T09:08:12.043Z,2.30
2018-04-25T09:13:13.476Z,2.33
2018-04-25T09:18:15.618Z,1.20
2018-04-25T09:23:16.930Z,1.70
2018-04-25T09:28:18.259Z,1.00
2018-04-25T09:33:19.570Z,0.80
2018-04-25T09:38:20.910Z,0.77
2018-04-25T09:43:22.226Z,0.80
2018-04-25T09:48:23.547Z,1.00
2018-04-25T09:53:24.882Z,0.93
2018-04-25T09:58:26.196Z,1.23
2018-04-25T10:03:27.534Z,0.80
2018-04-25T10:08:28.909Z,1.10
2018-04-25T10:13:30.242Z,1.00
2018-04-25T10:18:31.575Z,1.20
2018-04-25T10:23:32.890Z,1.00
2018-04-25T10:28:34.209Z,1.03
2018-04-25T10:33:35.534Z,1.00
2018-04-25T10:38:36.838Z,0.73
2018-04-25T10:43:38.137Z,0.90
2018-04-25T10:48:39.458Z,0.70
2018-04-25T10:53:40.882Z,0.70
2018-04-25T10:58:42.232Z,0.73
2018-04-25T11:03:43.622Z,0.90
2018-04-25T11:08:44.973Z,0.70
2018-04-25T11:13:50.682Z,0.70
2018-04-25T11:18:52.080Z,1.10
2018-04-25T11:23:53.437Z,0.80
2018-04-25T11:28:54.813Z,0.80
2018-04-25T11:33:56.186Z,0.70
2018-04-25T11:38:58.267Z,0.90
2018-04-25T11:43:59.601Z,0.80
2018-04-25T11:49:00.939Z,0.70
2018-04-25T11:54:02.309Z,0.97
2018-04-25T11:59:03.647Z,0.90
2018-04-25T12:04:05.705Z,0.73
2018-04-25T12:09:14.089Z,0.90
2018-04-25T12:14:15.480Z,1.00
2018-04-25T12:19:16.832Z,0.90
2018-04-25T12:24:18.158Z,0.80
2018-04-25T12:29:19.485Z,1.57
2018-04-25T12:34:21.924Z,0.90
2018-04-25T12:39:23.483Z,1.00
2018-04-25T12:44:25.527Z,1.10
2018-04-25T12:49:26.831Z,1.00
2018-04-25T12:54:28.183Z,1.30
2018-04-25T12:59:30.237Z,1.00
2018-04-25T13:04:31.594Z,1.30
2018-04-25T13:09:32.929Z,1.20
2018-04-25T13:14:41.326Z,1.10
2018-04-25T13:19:43.446Z,1.10
2018-04-25T13:24:45.565Z,1.23
2018-04-25T13:29:46.919Z,1.23
2018-04-25T13:34:48.246Z,1.50
2018-04-25T13:39:49.579Z,1.40
2018-04-25T13:44:50.919Z,1.53
2018-04-25T13:49:52.997Z,1.03
2018-04-25T13:54:54.430Z,1.20
2018-04-25T13:59:55.849Z,1.70
2018-04-25T14:04:57.203Z,1.30
2018-04-25T14:09:59.002Z,2.13
2018-04-25T14:15:00.370Z,1.80
2018-04-25T14:20:02.521Z,1.10
2018-04-25T14:25:03.879Z,2.00
2018-04-25T14:30:06.050Z,1.93
2018-04-25T14:35:08.328Z,2.30
2018-04-25T14:40:09.647Z,2.77
2018-04-25T14:45:11.003Z,2.47
2018-04-25T14:50:12.354Z,2.23
2018-04-25T14:55:14.448Z,2.67
2018-04-25T15:00:15.810Z,2.47
2018-04-25T15:05:17.242Z,1.87
2018-04-25T15:10:18.567Z,1.93
2018-04-25T15:15:19.912Z,1.93
2018-04-25T15:20:21.269Z,2.17
2018-04-25T15:25:22.656Z,2.30
2018-04-25T15:30:24.002Z,2.17
2018-04-25T15:35:25.358Z,2.40
2018-04-25T15:40:26.697Z,4.00
2018-04-25T15:45:28.017Z,3.10
2018-04-25T15:50:30.740Z,3.33
2018-04-25T15:55:32.239Z,3.20
2018-04-25T16:00:33.586Z,3.30
2018-04-25T16:05:36.589Z,3.50
2018-04-25T16:10:38.041Z,4.00
2018-04-25T16:15:39.417Z,3.60
2018-04-25T16:20:40.834Z,4.07
2018-04-25T16:25:42.512Z,3.13
2018-04-25T16:30:43.998Z,3.87
2018-04-25T16:35:45.404Z,3.63
2018-04-25T16:40:47.611Z,3.60
2018-04-25T16:45:49.700Z,4.40
2018-04-25T16:50:51.909Z,4.27
2018-04-25T16:55:53.748Z,4.20
2018-04-25T17:00:55.106Z,3.40
2018-04-25T17:05:56.498Z,3.47
2018-04-25T17:10:57.853Z,3.70
2018-04-25T17:15:59.169Z,3.77
2018-04-25T17:21:01.255Z,3.50
2018-04-25T17:26:02.694Z,2.53
2018-04-25T17:31:04.029Z,2.90
2018-04-25T17:36:05.345Z,2.10
2018-04-25T17:41:06.661Z,2.37
2018-04-25T17:46:08.041Z,3.00
2018-04-25T17:51:09.370Z,2.07
2018-04-25T17:56:10.734Z,2.40
2018-04-25T18:01:12.058Z,2.30
2018-04-25T18:06:13.402Z,2.00
2018-04-25T18:11:15.032Z,2.67
2018-04-25T18:16:16.342Z,2.53
2018-04-25T18:21:17.661Z,2.07
2018-04-25T18:26:19.710Z,1.87
2018-04-25T18:31:21.027Z,2.03
2018-04-25T18:36:22.333Z,2.47
2018-04-25T18:41:24.553Z,2.40
2018-04-25T18:46:27.220Z,2.87
2018-04-25T18:51:28.614Z,2.40
2018-04-25T18:56:29.967Z,2.87
2018-04-25T19:01:31.323Z,3.00
2018-04-25T19:06:32.763Z,2.93
2018-04-25T19:11:34.130Z,3.50
2018-04-25T19:16:36.204Z,3.77
2018-04-25T19:21:37.575Z,2.90
2018-04-25T19:26:38.895Z,3.57
2018-04-25T19:31:40.258Z,5.40
2018-04-25T19:36:41.664Z,7.27
2018-04-25T19:41:43.022Z,12.50
2018-04-25T19:46:44.503Z,11.17
2018-04-25T19:51:45.841Z,7.03
2018-04-25T19:56:47.201Z,7.47
2018-04-25T20:01:48.530Z,4.10
2018-04-25T20:06:49.861Z,4.50
2018-04-25T20:11:51.198Z,4.73
2018-04-25T20:16:52.515Z,4.17
2018-04-25T20:21:54.579Z,4.70
2018-04-25T20:26:55.987Z,4.80
2018-04-25T20:31:57.314Z,5.30
2018-04-25T20:36:58.650Z,7.23
2018-04-25T20:41:59.977Z,7.03
2018-04-25T20:47:02.026Z,4.83
2018-04-25T20:52:03.355Z,4.37
2018-04-25T20:57:04.698Z,4.40
2018-04-25T21:02:06.032Z,4.60
2018-04-25T21:07:07.350Z,4.10
2018-04-25T21:12:08.673Z,4.13
2018-04-25T21:17:09.978Z,4.57
2018-04-25T21:22:11.289Z,4.67
2018-04-25T21:27:12.641Z,4.47
2018-04-25T21:32:13.971Z,5.27
2018-04-25T21:37:15.278Z,5.00
2018-04-25T21:42:17.337Z,4.70
2018-04-25T21:47:18.659Z,5.73
2018-04-25T21:52:20.732Z,4.50
2018-04-25T21:57:22.140Z,5.83
2018-04-25T22:02:23.428Z,6.53
2018-04-25T22:07:24.735Z,7.10
2018-04-25T22:12:26.806Z,6.70
2018-04-25T22:17:28.141Z,7.80
2018-04-25T22:22:30.182Z,7.00
2018-04-25T22:27:31.510Z,6.97
2018-04-25T22:32:32.832Z,7.23
2018-04-25T22:37:34.914Z,6.70
2018-04-25T22:42:36.273Z,6.60
2018-04-25T22:47:37.597Z,6.67
2018-04-25T22:52:39.695Z,7.70
2018-04-25T22:57:41.080Z,7.23
2018-04-25T23:02:42.438Z,7.10
2018-04-25T23:07:43.801Z,7.20
2018-04-25T23:12:45.127Z,5.90
2018-04-25T23:17:46.465Z,6.13
2018-04-25T23:22:47.767Z,5.93
2018-04-25T23:27:49.088Z,5.83
2018-04-25T23:32:50.397Z,4.93
2018-04-25T23:37:51.703Z,5.13
2018-04-25T23:42:53.027Z,5.30
2018-04-25T23:47:54.348Z,5.30
2018-04-25T23:52:55.715Z,4.30
2018-04-25T23:57:57.037Z,4.77
